createdAt,value
2022-10-04T00:01:11.475Z,101838.69
2022-10-04T00:03:21.903Z,101840.50
2022-10-04T00:05:25.477Z,101833.59
2022-10-04T00:07:33.953Z,101825.00
2022-10-04T00:10:01.122Z,101833.75
2022-10-04T00:12:04.322Z,101825.94
2022-10-04T00:14:14.061Z,101826.81
2022-10-04T00:16:32.443Z,101825.97
2022-10-04T00:18:45.068Z,101818.16
2022-10-04T00:20:50.704Z,101822.41
2022-10-04T00:23:23.430Z,101814.81
2022-10-04T00:25:34.822Z,101810.41
2022-10-04T00:27:38.555Z,101801.81
2022-10-04T00:29:44.813Z,101799.22
2022-10-04T00:32:21.514Z,101804.38
2022-10-04T00:34:30.292Z,101807.91
2022-10-04T00:36:47.545Z,101810.63
2022-10-04T00:39:09.128Z,101798.38
2022-10-04T00:41:13.449Z,101799.22
2022-10-04T00:43:23.334Z,101785.56
2022-10-04T00:45:40.760Z,101786.44
2022-10-04T00:47:48.073Z,101789.81
2022-10-04T00:49:56.165Z,101787.09
2022-10-04T00:52:27.176Z,101786.47
2022-10-04T00:54:41.412Z,101775.88
2022-10-04T00:57:07.489Z,101770.88
2022-10-04T00:59:39.673Z,101767.31
2022-10-04T01:01:45.589Z,101763.94
2022-10-04T01:03:47.963Z,101764.75
2022-10-04T01:05:56.719Z,101765.78
2022-10-04T01:08:17.945Z,101764.94
2022-10-04T01:10:31.389Z,101761.50
2022-10-04T01:12:44.973Z,101771.03
2022-10-04T01:15:06.314Z,101753.72
2022-10-04T01:17:09.021Z,101754.69
2022-10-04T01:19:22.606Z,101745.97
2022-10-04T01:21:31.487Z,101740.88
2022-10-04T01:23:46.515Z,101735.59
2022-10-04T01:25:51.306Z,101738.31
2022-10-04T01:27:53.185Z,101737.53
2022-10-04T01:29:54.894Z,101730.59
2022-10-04T01:31:59.983Z,101727.09
2022-10-04T01:34:02.637Z,101715.97
2022-10-04T01:36:04.442Z,101722.75
2022-10-04T01:38:07.592Z,101721.88
2022-10-04T01:40:11.115Z,101718.50
2022-10-04T01:42:18.768Z,101716.78
2022-10-04T01:44:37.197Z,101714.16
2022-10-04T01:46:41.183Z,101711.59
2022-10-04T01:48:45.950Z,101704.56
2022-10-04T01:51:13.133Z,101701.81
2022-10-04T01:53:27.396Z,101688.91
2022-10-04T01:55:37.682Z,101694.03
2022-10-04T01:57:47.808Z,101693.16
2022-10-04T02:00:09.462Z,101697.47
2022-10-04T02:02:24.117Z,101696.56
2022-10-04T02:04:32.712Z,101688.91
2022-10-04T02:06:40.356Z,101686.41
2022-10-04T02:08:49.599Z,101691.56
2022-10-04T02:10:54.689Z,101686.41
2022-10-04T02:12:57.996Z,101682.22
2022-10-04T02:15:02.712Z,101685.53
2022-10-04T02:17:10.622Z,101675.88
2022-10-04T02:19:14.435Z,101671.69
2022-10-04T02:21:17.696Z,101661.38
2022-10-04T02:23:21.602Z,101658.81
2022-10-04T02:25:23.392Z,101658.66
2022-10-04T02:27:31.328Z,101645.75
2022-10-04T02:29:33.494Z,101639.75
2022-10-04T02:31:56.392Z,101639.78
2022-10-04T02:34:00.330Z,101632.88
2022-10-04T02:36:02.567Z,101632.84
2022-10-04T02:38:14.853Z,101622.59
2022-10-04T02:40:20.661Z,101622.59
2022-10-04T02:42:36.108Z,101623.44
2022-10-04T02:44:44.457Z,101627.75
2022-10-04T02:46:51.902Z,101625.19
2022-10-04T02:49:21.023Z,101625.28
2022-10-04T02:51:36.247Z,101621.81
2022-10-04T02:54:03.458Z,101624.31
2022-10-04T02:56:05.970Z,101619.16
2022-10-04T02:58:11.009Z,101614.84
2022-10-04T03:00:12.663Z,101611.44
2022-10-04T03:02:29.883Z,101614.84
2022-10-04T03:04:37.918Z,101613.94
2022-10-04T03:06:39.747Z,101617.44
2022-10-04T03:08:48.862Z,101614.81
2022-10-04T03:10:51.132Z,101604.50
2022-10-04T03:12:53.706Z,101599.31
2022-10-04T03:14:55.819Z,101601.06
2022-10-04T03:17:01.812Z,101601.00
2022-10-04T03:19:07.315Z,101590.72
2022-10-04T03:21:12.915Z,101587.22
2022-10-04T03:23:17.339Z,101584.59
2022-10-04T03:25:23.951Z,101584.63
2022-10-04T03:27:34.012Z,101578.59
2022-10-04T03:29:40.715Z,101576.88
2022-10-04T03:31:47.233Z,101565.56
2022-10-04T03:33:50.203Z,101567.34
2022-10-04T03:35:55.122Z,101566.53
2022-10-04T03:37:59.144Z,101560.41
2022-10-04T03:40:15.058Z,101563.94
2022-10-04T03:42:46.069Z,101563.00
2022-10-04T03:44:56.870Z,101552.69
2022-10-04T03:46:59.564Z,101559.63
2022-10-04T03:49:07.322Z,101555.22
2022-10-04T03:51:16.330Z,101563.84
2022-10-04T03:53:32.107Z,101553.53
2022-10-04T03:55:43.348Z,101554.34
2022-10-04T03:57:45.153Z,101558.69
2022-10-04T03:59:48.131Z,101563.00
2022-10-04T04:02:18.396Z,101563.84
2022-10-04T04:04:31.196Z,101569.94
2022-10-04T04:06:46.859Z,101563.84
2022-10-04T04:09:02.256Z,101556.94
2022-10-04T04:11:08.281Z,101555.97
2022-10-04T04:13:24.211Z,101553.50
2022-10-04T04:15:31.475Z,101549.13
2022-10-04T04:17:52.462Z,101539.63
2022-10-04T04:20:08.115Z,101533.53
2022-10-04T04:22:16.865Z,101541.38
2022-10-04T04:24:32.265Z,101529.25
2022-10-04T04:26:35.153Z,101529.31
2022-10-04T04:28:50.271Z,101528.44
2022-10-04T04:30:57.655Z,101531.03
2022-10-04T04:33:08.443Z,101537.13
2022-10-04T04:35:21.594Z,101538.78
2022-10-04T04:37:23.395Z,101540.59
2022-10-04T04:39:34.359Z,101551.88
2022-10-04T04:41:36.399Z,101551.06
2022-10-04T04:43:43.723Z,101556.19
2022-10-04T04:46:03.021Z,101550.19
2022-10-04T04:48:15.503Z,101558.78
2022-10-04T04:50:20.276Z,101559.66
2022-10-04T04:52:27.085Z,101557.88
2022-10-04T04:54:28.931Z,101558.75
2022-10-04T04:56:31.481Z,101555.22
2022-10-04T04:58:43.534Z,101551.72
2022-10-04T05:00:54.511Z,101545.66
2022-10-04T05:03:02.020Z,101550.91
2022-10-04T05:05:22.476Z,101543.84
2022-10-04T05:07:24.827Z,101549.09
2022-10-04T05:09:35.798Z,101537.03
2022-10-04T05:11:39.625Z,101530.91
2022-10-04T05:13:47.485Z,101535.28
2022-10-04T05:15:53.998Z,101538.72
2022-10-04T05:17:55.761Z,101529.22
2022-10-04T05:20:01.417Z,101524.03
2022-10-04T05:22:09.819Z,101531.72
2022-10-04T05:24:17.943Z,101534.22
2022-10-04T05:26:27.946Z,101536.88
2022-10-04T05:28:30.216Z,101534.28
2022-10-04T05:30:31.957Z,101527.38
2022-10-04T05:32:39.664Z,101534.22
2022-10-04T05:34:48.793Z,101524.81
2022-10-04T05:36:53.638Z,101527.38
2022-10-04T05:39:06.153Z,101525.63
2022-10-04T05:41:20.952Z,101523.03
2022-10-04T05:43:44.721Z,101536.00
2022-10-04T05:45:46.571Z,101530.63
2022-10-04T05:47:51.348Z,101521.13
2022-10-04T05:49:55.733Z,101529.84
2022-10-04T05:52:02.503Z,101522.91
2022-10-04T05:54:04.858Z,101528.91
2022-10-04T05:56:18.455Z,101531.56
2022-10-04T05:58:44.346Z,101524.66
2022-10-04T06:00:55.477Z,101532.34
2022-10-04T06:03:24.226Z,101536.75
2022-10-04T06:05:55.575Z,101528.88
2022-10-04T06:08:08.391Z,101529.72
2022-10-04T06:10:40.959Z,101528.03
2022-10-04T06:13:00.780Z,101530.47
2022-10-04T06:15:27.319Z,101533.97
2022-10-04T06:17:44.283Z,101541.75
2022-10-04T06:20:11.559Z,101537.50
2022-10-04T06:22:17.407Z,101551.28
2022-10-04T06:24:27.117Z,101544.31
2022-10-04T06:26:37.588Z,101552.16
2022-10-04T06:29:06.446Z,101545.16
2022-10-04T06:31:25.893Z,101538.25
2022-10-04T06:34:06.225Z,101545.09
2022-10-04T06:36:26.796Z,101546.69
2022-10-04T06:39:13.311Z,101543.38
2022-10-04T06:41:38.362Z,101548.63
2022-10-04T06:43:46.223Z,101539.91
2022-10-04T06:45:56.845Z,101544.28
2022-10-04T06:48:36.998Z,101546.06
2022-10-04T06:51:21.984Z,101548.66
2022-10-04T06:54:08.678Z,101548.63
2022-10-04T06:56:23.009Z,101550.41
2022-10-04T06:58:43.349Z,101549.44
2022-10-04T07:01:09.167Z,101543.34
2022-10-04T07:03:17.492Z,101540.84
2022-10-04T07:05:30.518Z,101540.63
2022-10-04T07:07:36.320Z,101532.09
2022-10-04T07:09:42.738Z,101529.63
2022-10-04T07:12:08.629Z,101529.66
2022-10-04T07:14:17.049Z,101524.47
2022-10-04T07:16:28.032Z,101536.66
2022-10-04T07:18:37.674Z,101534.81
2022-10-04T07:20:40.230Z,101530.66
2022-10-04T07:23:00.348Z,101533.22
2022-10-04T07:25:05.543Z,101527.22
2022-10-04T07:27:13.391Z,101520.22
2022-10-04T07:29:22.703Z,101525.41
2022-10-04T07:31:28.668Z,101534.09
2022-10-04T07:33:35.872Z,101538.44
2022-10-04T07:35:48.999Z,101552.25
2022-10-04T07:38:00.367Z,101551.50
2022-10-04T07:40:19.004Z,101548.16
2022-10-04T07:42:26.562Z,101553.34
2022-10-04T07:44:40.917Z,101556.78
2022-10-04T07:46:42.557Z,101555.88
2022-10-04T07:48:44.429Z,101554.97
2022-10-04T07:51:05.338Z,101564.50
2022-10-04T07:53:33.305Z,101562.84
2022-10-04T07:55:52.289Z,101555.94
2022-10-04T07:58:21.145Z,101554.19
2022-10-04T08:00:27.680Z,101555.19
2022-10-04T08:02:35.218Z,101566.47
2022-10-04T08:04:37.563Z,101563.75
2022-10-04T08:06:52.680Z,101571.66
2022-10-04T08:09:11.918Z,101568.22
2022-10-04T08:11:51.710Z,101574.34
2022-10-04T08:14:11.228Z,101566.56
2022-10-04T08:16:23.831Z,101558.88
2022-10-04T08:18:25.473Z,101556.19
2022-10-04T08:20:36.487Z,101552.69
2022-10-04T08:23:03.866Z,101542.41
2022-10-04T08:25:20.794Z,101540.75
2022-10-04T08:28:08.646Z,101537.34
2022-10-04T08:30:25.707Z,101528.75
2022-10-04T08:32:39.554Z,101530.50
2022-10-04T08:34:53.209Z,101518.41
2022-10-04T08:37:16.701Z,101530.41
2022-10-04T08:39:27.941Z,101515.50
2022-10-04T08:41:44.880Z,101516.56
2022-10-04T08:44:18.161Z,101521.00
2022-10-04T08:46:46.812Z,101531.47
2022-10-04T08:49:13.006Z,101536.56
2022-10-04T08:51:52.467Z,101532.13
2022-10-04T08:54:13.505Z,101538.19
2022-10-04T08:56:48.397Z,101526.75
2022-10-04T08:59:26.933Z,101532.16
2022-10-04T09:02:00.183Z,101535.72
2022-10-04T09:04:40.867Z,101533.09
2022-10-04T09:06:48.307Z,101534.91
2022-10-04T09:09:22.283Z,101532.94
2022-10-04T09:11:41.577Z,101533.97
2022-10-04T09:14:14.424Z,101536.56
2022-10-04T09:16:33.230Z,101517.53
2022-10-04T09:18:56.187Z,101522.66
2022-10-04T09:21:14.308Z,101532.94
2022-10-04T09:23:31.124Z,101532.16
2022-10-04T09:25:58.942Z,101530.41
2022-10-04T09:28:21.132Z,101542.56
2022-10-04T09:30:40.403Z,101552.97
2022-10-04T09:33:03.256Z,101544.13
2022-10-04T09:35:31.594Z,101534.75
2022-10-04T09:37:47.859Z,101532.13
2022-10-04T09:40:18.188Z,101562.25
2022-10-04T09:42:42.012Z,101540.47
2022-10-04T09:44:57.570Z,101545.00
2022-10-04T09:47:22.184Z,101545.75
2022-10-04T09:50:00.780Z,101559.66
2022-10-04T09:52:32.698Z,101558.69
2022-10-04T09:55:11.516Z,101533.59
2022-10-04T09:57:26.457Z,101549.16
2022-10-04T09:59:46.011Z,101534.44
2022-10-04T10:02:29.015Z,101527.63
2022-10-04T10:05:00.144Z,101523.28
2022-10-04T10:07:13.793Z,101514.69
2022-10-04T10:09:47.853Z,101529.44
2022-10-04T10:12:36.225Z,101523.41
2022-10-04T10:15:13.489Z,101544.25
2022-10-04T10:17:36.529Z,101536.50
2022-10-04T10:20:16.829Z,101532.25
2022-10-04T10:22:38.571Z,101546.19
2022-10-04T10:24:54.832Z,101527.13
2022-10-04T10:27:50.759Z,101505.56
2022-10-04T10:30:25.896Z,101491.75
2022-10-04T10:32:27.562Z,101494.38
2022-10-04T10:34:58.295Z,101509.03
2022-10-04T10:37:37.431Z,101499.56
2022-10-04T10:39:47.265Z,101497.84
2022-10-04T10:42:19.910Z,101492.69
2022-10-04T10:45:05.025Z,101487.59
2022-10-04T10:47:16.088Z,101494.53
2022-10-04T10:49:44.969Z,101505.00
2022-10-04T10:52:20.300Z,101503.28
2022-10-04T10:54:37.495Z,101504.97
2022-10-04T10:57:03.504Z,101507.56
2022-10-04T10:59:20.761Z,101499.75
2022-10-04T11:01:44.832Z,101503.19
2022-10-04T11:04:04.797Z,101508.41
2022-10-04T11:07:01.455Z,101507.56
2022-10-04T11:09:34.295Z,101523.16
2022-10-04T11:12:05.775Z,101524.91
2022-10-04T11:14:25.633Z,101510.97
2022-10-04T11:16:35.018Z,101513.69
2022-10-04T11:19:08.054Z,101502.34
2022-10-04T11:21:35.131Z,101499.81
2022-10-04T11:24:13.867Z,101501.50
2022-10-04T11:26:52.637Z,101487.72
2022-10-04T11:29:20.687Z,101481.59
2022-10-04T11:31:45.990Z,101473.78
2022-10-04T11:33:56.300Z,101469.47
2022-10-04T11:36:24.588Z,101473.00
2022-10-04T11:38:53.896Z,101474.78
2022-10-04T11:41:11.051Z,101471.31
2022-10-04T11:43:42.769Z,101463.53
2022-10-04T11:46:17.993Z,101460.03
2022-10-04T11:48:47.650Z,101451.41
2022-10-04T11:51:18.496Z,101458.41
2022-10-04T11:53:39.607Z,101454.06
2022-10-04T11:55:42.461Z,101462.72
2022-10-04T11:58:02.932Z,101477.50
2022-10-04T12:00:33.465Z,101461.00
2022-10-04T12:03:05.065Z,101459.22
2022-10-04T12:05:31.105Z,101465.31
2022-10-04T12:07:50.789Z,101464.41
2022-10-04T12:10:23.604Z,101465.25
2022-10-04T12:12:57.686Z,101468.72
2022-10-04T12:15:14.573Z,101484.31
2022-10-04T12:17:38.574Z,101480.84
2022-10-04T12:19:54.228Z,101482.59
2022-10-04T12:22:33.463Z,101472.22
2022-10-04T12:24:53.384Z,101465.28
2022-10-04T12:27:13.291Z,101467.91
2022-10-04T12:30:03.441Z,101463.56
2022-10-04T12:32:20.145Z,101455.75
2022-10-04T12:34:41.994Z,101456.63
2022-10-04T12:37:17.058Z,101454.00
2022-10-04T12:39:44.466Z,101454.03
2022-10-04T12:41:52.134Z,101449.66
2022-10-04T12:44:07.945Z,101452.25
2022-10-04T12:46:30.634Z,101453.13
2022-10-04T12:49:11.664Z,101461.78
2022-10-04T12:51:19.131Z,101457.47
2022-10-04T12:53:41.521Z,101454.88
2022-10-04T12:56:04.721Z,101466.09
2022-10-04T12:58:16.521Z,101449.63
2022-10-04T13:00:23.032Z,101450.47
2022-10-04T13:02:48.995Z,101455.69
2022-10-04T13:04:55.337Z,101460.94
2022-10-04T13:07:21.752Z,101454.88
2022-10-04T13:09:55.306Z,101473.91
2022-10-04T13:12:29.403Z,101447.09
2022-10-04T13:14:40.159Z,101438.41
2022-10-04T13:19:34.132Z,101439.22
2022-10-04T13:22:06.832Z,101434.00
2022-10-04T13:24:28.647Z,101427.97
2022-10-04T13:26:36.175Z,101431.44
2022-10-04T13:29:13.804Z,101427.97
2022-10-04T13:31:34.824Z,101418.44
2022-10-04T13:33:49.367Z,101421.91
2022-10-04T13:36:11.709Z,101406.28
2022-10-04T13:38:34.961Z,101415.78
2022-10-04T13:40:42.878Z,101420.16
2022-10-04T13:43:09.220Z,101415.81
2022-10-04T13:45:36.356Z,101419.28
2022-10-04T13:48:21.608Z,101414.09
2022-10-04T13:50:38.739Z,101423.63
2022-10-04T13:53:27.053Z,101424.44
2022-10-04T13:55:53.093Z,101413.16
2022-10-04T13:58:22.620Z,101402.75
2022-10-04T14:00:54.915Z,101412.28
2022-10-04T14:03:13.393Z,101401.03
2022-10-04T14:05:50.260Z,101405.38
2022-10-04T14:08:36.774Z,101411.41
2022-10-04T14:11:16.859Z,101421.75
2022-10-04T14:13:45.752Z,101426.97
2022-10-04T14:16:05.785Z,101419.97
2022-10-04T14:18:23.478Z,101424.31
2022-10-04T14:20:33.549Z,101437.28
2022-10-04T14:22:53.913Z,101422.53
2022-10-04T14:25:31.044Z,101413.03
2022-10-04T14:28:06.451Z,101406.97
2022-10-04T14:30:12.727Z,101407.00
2022-10-04T14:32:41.912Z,101412.19
2022-10-04T14:34:59.695Z,101436.47
2022-10-04T14:37:01.308Z,101416.56
2022-10-04T14:39:59.466Z,101422.59
2022-10-04T14:42:34.128Z,101406.16
2022-10-04T14:45:00.001Z,101419.13
2022-10-04T14:47:27.875Z,101419.13
2022-10-04T14:50:00.242Z,101414.72
2022-10-04T14:52:16.852Z,101415.59
2022-10-04T14:54:52.585Z,101415.69
2022-10-04T14:57:00.737Z,101409.56
2022-10-04T14:59:32.970Z,101409.69
2022-10-04T15:01:39.416Z,101420.09
2022-10-04T15:04:22.118Z,101426.97
2022-10-04T15:06:38.177Z,101426.97
2022-10-04T15:09:17.757Z,101422.69
2022-10-04T15:11:40.007Z,101414.88
2022-10-04T15:13:55.693Z,101423.56
2022-10-04T15:16:10.057Z,101424.44
2022-10-04T15:19:04.279Z,101426.16
2022-10-04T15:21:45.808Z,101428.78
2022-10-04T15:24:10.807Z,101421.75
2022-10-04T15:26:18.634Z,101413.19
2022-10-04T15:29:06.226Z,101415.81
2022-10-04T15:31:26.496Z,101409.72
2022-10-04T15:33:28.282Z,101394.09
2022-10-04T15:35:36.999Z,101399.31
2022-10-04T15:37:50.001Z,101402.78
2022-10-04T15:40:07.621Z,101403.63
2022-10-04T15:42:21.466Z,101403.66
2022-10-04T15:45:02.727Z,101414.06
2022-10-04T15:47:07.444Z,101413.19
2022-10-04T15:49:25.103Z,101411.44
2022-10-04T15:51:48.750Z,101399.31
2022-10-04T15:54:14.565Z,101406.25
2022-10-04T15:56:40.934Z,101416.63
2022-10-04T15:58:54.486Z,101395.75
2022-10-04T16:01:41.339Z,101375.78
2022-10-04T16:04:09.986Z,101382.78
2022-10-04T16:06:36.323Z,101380.13
2022-10-04T16:09:11.282Z,101379.31
2022-10-04T16:11:38.033Z,101381.88
2022-10-04T16:13:53.933Z,101382.78
2022-10-04T16:16:17.724Z,101376.72
2022-10-04T16:18:33.565Z,101381.06
2022-10-04T16:20:56.263Z,101387.13
2022-10-04T16:23:25.280Z,101402.75
2022-10-04T16:25:38.209Z,101385.28
2022-10-04T16:27:54.957Z,101379.25
2022-10-04T16:30:26.102Z,101375.84
2022-10-04T16:32:43.330Z,101372.31
2022-10-04T16:34:53.501Z,101361.09
2022-10-04T16:37:15.948Z,101373.19
2022-10-04T16:40:00.591Z,101370.66
2022-10-04T16:42:06.899Z,101376.66
2022-10-04T16:44:39.941Z,101372.28
2022-10-04T16:46:45.175Z,101365.38
2022-10-04T16:49:21.658Z,101361.88
2022-10-04T16:51:51.498Z,101370.53
2022-10-04T16:54:05.293Z,101373.19
2022-10-04T16:56:16.507Z,101365.41
2022-10-04T16:58:27.202Z,101373.19
2022-10-04T17:00:36.228Z,101377.50
2022-10-04T17:02:49.159Z,101372.28
2022-10-04T17:05:01.453Z,101375.78
2022-10-04T17:07:36.349Z,101380.97
2022-10-04T17:10:16.193Z,101377.50
2022-10-04T17:12:23.737Z,101390.53
2022-10-04T17:14:31.709Z,101387.94
2022-10-04T17:16:40.010Z,101381.00
2022-10-04T17:19:11.470Z,101389.63
2022-10-04T17:21:29.153Z,101386.19
2022-10-04T17:23:49.532Z,101383.56
2022-10-04T17:26:05.178Z,101396.56
2022-10-04T17:28:21.104Z,101406.16
2022-10-04T17:30:30.299Z,101392.22
2022-10-04T17:32:46.921Z,101406.09
2022-10-04T17:35:12.323Z,101407.00
2022-10-04T17:37:20.943Z,101413.88
2022-10-04T17:39:33.926Z,101410.44
2022-10-04T17:42:12.277Z,101402.56
2022-10-04T17:44:35.869Z,101405.25
2022-10-04T17:46:48.499Z,101392.19
2022-10-04T17:49:17.480Z,101399.94
2022-10-04T17:52:01.909Z,101393.84
2022-10-04T17:54:37.121Z,101382.59
2022-10-04T17:56:53.911Z,101377.38
2022-10-04T17:59:12.826Z,101384.28
2022-10-04T18:01:34.841Z,101399.94
2022-10-04T18:04:15.075Z,101380.84
2022-10-04T18:06:28.378Z,101365.28
2022-10-04T18:08:39.185Z,101362.63
2022-10-04T18:10:50.609Z,101356.56
2022-10-04T18:13:01.110Z,101351.31
2022-10-04T18:15:26.715Z,101350.44
2022-10-04T18:17:35.784Z,101350.44
2022-10-04T18:19:50.227Z,101364.38
2022-10-04T18:21:54.324Z,101373.84
2022-10-04T18:24:02.233Z,101369.47
2022-10-04T18:26:18.256Z,101373.91
2022-10-04T18:28:21.996Z,101380.88
2022-10-04T18:30:24.330Z,101382.56
2022-10-04T18:32:25.953Z,101379.09
2022-10-04T18:34:29.871Z,101373.03
2022-10-04T18:36:48.962Z,101373.94
2022-10-04T18:39:19.109Z,101384.34
2022-10-04T18:41:23.320Z,101383.41
2022-10-04T18:43:40.441Z,101369.56
2022-10-04T18:46:22.247Z,101370.38
2022-10-04T18:48:37.523Z,101373.06
2022-10-04T18:50:47.141Z,101368.69
2022-10-04T18:52:58.332Z,101367.78
2022-10-04T18:55:06.132Z,101366.94
2022-10-04T18:57:24.201Z,101349.63
2022-10-04T19:00:09.582Z,101349.63
2022-10-04T19:02:38.962Z,101343.50
2022-10-04T19:04:49.906Z,101337.41
2022-10-04T19:06:54.855Z,101338.34
2022-10-04T19:09:25.657Z,101345.25
2022-10-04T19:11:59.651Z,101338.34
2022-10-04T19:14:20.035Z,101346.09
2022-10-04T19:16:21.750Z,101353.81
2022-10-04T19:18:42.150Z,101351.25
2022-10-04T19:20:52.122Z,101343.44
2022-10-04T19:23:01.331Z,101352.97
2022-10-04T19:25:06.267Z,101347.78
2022-10-04T19:27:31.923Z,101344.31
2022-10-04T19:29:39.504Z,101338.25
2022-10-04T19:32:00.579Z,101333.94
2022-10-04T19:34:11.541Z,101326.13
2022-10-04T19:36:20.978Z,101327.00
2022-10-04T19:38:52.476Z,101320.97
2022-10-04T19:41:13.535Z,101327.00
2022-10-04T19:43:23.677Z,101329.59
2022-10-04T19:45:58.999Z,101325.28
2022-10-04T19:48:08.562Z,101317.47
2022-10-04T19:50:25.004Z,101326.94
2022-10-04T19:52:38.742Z,101330.41
2022-10-04T19:54:40.625Z,101319.16
2022-10-04T19:56:48.322Z,101320.88
2022-10-04T19:59:14.454Z,101309.63
2022-10-04T20:01:23.323Z,101303.56
2022-10-04T20:03:25.193Z,101310.44
2022-10-04T20:05:27.065Z,101309.56
2022-10-04T20:07:29.050Z,101320.88
2022-10-04T20:09:44.089Z,101318.28
2022-10-04T20:11:48.495Z,101327.81
2022-10-04T20:14:07.301Z,101337.28
2022-10-04T20:16:09.113Z,101338.16
2022-10-04T20:18:29.766Z,101328.72
2022-10-04T20:20:43.442Z,101325.22
2022-10-04T20:22:54.086Z,101336.47
2022-10-04T20:24:57.957Z,101331.38
2022-10-04T20:27:17.498Z,101325.25
2022-10-04T20:29:37.244Z,101327.00
2022-10-04T20:31:42.445Z,101326.09
2022-10-04T20:33:46.078Z,101323.53
2022-10-04T20:36:08.399Z,101314.00
2022-10-04T20:38:31.632Z,101316.59
2022-10-04T20:40:40.241Z,101316.59
2022-10-04T20:42:41.874Z,101310.53
2022-10-04T20:45:20.738Z,101313.16
2022-10-04T20:47:40.347Z,101314.88
2022-10-04T20:49:45.043Z,101314.06
2022-10-04T20:51:48.666Z,101319.25
2022-10-04T20:53:51.165Z,101315.78
2022-10-04T20:56:20.495Z,101330.47
2022-10-04T20:58:35.379Z,101315.78
2022-10-04T21:00:52.754Z,101316.66
2022-10-04T21:03:14.575Z,101318.44
2022-10-04T21:05:24.736Z,101314.97
2022-10-04T21:07:27.290Z,101315.81
2022-10-04T21:09:34.018Z,101318.38
2022-10-04T21:11:46.737Z,101316.69
2022-10-04T21:13:49.689Z,101323.63
2022-10-04T21:16:00.826Z,101321.06
2022-10-04T21:18:05.117Z,101319.34
2022-10-04T21:20:15.704Z,101330.56
2022-10-04T21:22:17.846Z,101314.09
2022-10-04T21:24:29.455Z,101314.09
2022-10-04T21:26:32.163Z,101314.97
2022-10-04T21:28:35.451Z,101307.16
2022-10-04T21:30:37.841Z,101295.84
2022-10-04T21:32:40.179Z,101302.81
2022-10-04T21:34:53.163Z,101304.56
2022-10-04T21:36:56.273Z,101305.47
2022-10-04T21:39:07.729Z,101307.13
2022-10-04T21:41:10.136Z,101309.75
2022-10-04T21:43:12.339Z,101323.66
2022-10-04T21:45:14.948Z,101315.00
2022-10-04T21:47:17.982Z,101306.38
2022-10-04T21:49:20.206Z,101297.69
2022-10-04T21:51:22.226Z,101308.06
2022-10-04T21:53:24.337Z,101300.25
2022-10-04T21:55:26.704Z,101302.00
2022-10-04T21:57:33.212Z,101295.06
2022-10-04T21:59:37.640Z,101288.13
2022-10-04T22:01:39.843Z,101286.41
2022-10-04T22:03:41.980Z,101278.59
2022-10-04T22:05:44.837Z,101274.25
2022-10-04T22:07:46.977Z,101288.13
2022-10-04T22:09:49.145Z,101281.19
2022-10-04T22:11:51.337Z,101302.91
2022-10-04T22:13:53.212Z,101281.19
2022-10-04T22:15:55.591Z,101271.66
2022-10-04T22:17:57.961Z,101264.69
2022-10-04T22:19:59.741Z,101250.81
2022-10-04T22:22:01.454Z,101266.41
2022-10-04T22:24:04.607Z,101257.75
2022-10-04T22:26:27.764Z,101258.66
2022-10-04T22:28:30.899Z,101254.25
2022-10-04T22:30:32.613Z,101256.91
2022-10-04T22:32:34.312Z,101247.34
2022-10-04T22:34:36.094Z,101250.81
2022-10-04T22:36:39.685Z,101252.56
2022-10-04T22:39:12.154Z,101248.25
2022-10-04T22:41:16.217Z,101250.84
2022-10-04T22:43:18.219Z,101258.63
2022-10-04T22:45:22.200Z,101240.47
2022-10-04T22:47:24.950Z,101249.97
2022-10-04T22:49:35.531Z,101239.59
2022-10-04T22:51:39.499Z,101236.13
2022-10-04T22:53:46.318Z,101227.47
2022-10-04T22:55:49.195Z,101230.03
2022-10-04T22:57:51.160Z,101226.56
2022-10-04T22:59:53.181Z,101218.75
2022-10-04T23:01:54.985Z,101213.56
2022-10-04T23:03:58.493Z,101221.34
2022-10-04T23:06:02.133Z,101201.44
2022-10-04T23:08:04.228Z,101210.97
2022-10-04T23:10:06.858Z,101204.88
2022-10-04T23:12:09.831Z,101205.75
2022-10-04T23:14:12.365Z,101197.06
2022-10-04T23:16:18.659Z,101192.75
2022-10-04T23:18:20.463Z,101190.13
2022-10-04T23:20:22.853Z,101176.28
2022-10-04T23:22:30.375Z,101173.69
2022-10-04T23:24:32.104Z,101169.38
2022-10-04T23:26:40.737Z,101164.16
2022-10-04T23:28:42.540Z,101161.56
2022-10-04T23:30:46.155Z,101162.41
2022-10-04T23:32:51.190Z,101161.56
2022-10-04T23:34:56.686Z,101157.22
2022-10-04T23:36:59.204Z,101152.03
2022-10-04T23:39:14.740Z,101145.97
2022-10-04T23:41:19.289Z,101154.63
2022-10-04T23:43:25.339Z,101135.56
2022-10-04T23:45:29.597Z,101140.75
2022-10-04T23:47:36.174Z,101140.72
2022-10-04T23:49:38.268Z,101132.09
2022-10-04T23:51:39.918Z,101131.22
2022-10-04T23:53:43.742Z,101130.34
2022-10-04T23:55:46.282Z,101124.28
2022-10-04T23:57:48.800Z,101135.53
2022-10-04T23:59:51.206Z,101126.88
